Latest Weather Observations for Noarlunga

IDS60801

Issued at 5:35 pm CST Thursday 24 April 2014 (issued every 30 minutes, with the page automatically refreshed every 10 minutes)

About weather observations | Map of weather stations | Latest weather observations for SA | Other Formats
Station Details ID: 023885 Name: NOARLUNGA Lat: -35.16 Lon: 138.51 Height: 55.0 m
Data from the previous 72 hours. | See also: Recent months at Noarlunga
Date/Time
CST
Temp
°C
App
Temp
°C
Dew
Point
Rel
Hum
%
Delta-T
°C
Wind Press
QNH
hPa
Press
MSL
hPa
Rain
since 9 am
mm
Dir
 
Spd
km/h
Gust
km/h
Spd
kts
Gust
kts
24/05:30pm 15.7 11.0 5.9 52 4.7 SE 20 28 11 15 - - 0.0
24/05:00pm 16.8 12.2 6.3 50 5.1 SE 20 30 11 16 - - 0.0
24/04:30pm 17.8 13.1 6.0 46 5.8 SSE 20 28 11 15 - - 0.0
24/04:00pm 18.8 14.7 6.3 44 6.2 SSE 17 22 9 12 - - 0.0
24/03:30pm 19.3 16.4 6.4 43 6.4 S 11 15 6 8 - - 0.0
24/03:00pm 19.4 15.4 6.5 43 6.5 SSE 17 22 9 12 - - 0.0
24/02:30pm 19.9 17.7 6.3 41 6.8 S 7 17 4 9 - - 0.0
24/02:00pm 20.4 17.9 6.7 41 6.9 S 9 17 5 9 - - 0.0
24/01:30pm 19.7 16.9 6.8 43 6.5 S 11 20 6 11 - - 0.0
24/01:00pm 19.1 15.7 7.5 47 5.9 SSE 15 26 8 14 - - 0.0
24/12:30pm 19.4 16.4 7.8 47 6.0 S 13 20 7 11 - - 0.0
24/12:00pm 18.8 15.7 9.0 53 5.1 SSE 15 20 8 11 - - 0.0
24/11:30am 18.4 15.0 9.2 55 4.8 S 17 26 9 14 - - 0.0
24/11:00am 18.8 15.5 9.6 55 4.9 SSE 17 24 9 13 - - 0.0
24/10:30am 18.1 14.5 10.0 59 4.3 S 19 30 10 16 - - 0.0
24/10:00am 18.4 15.4 11.9 66 3.6 S 19 26 10 14 - - 0.0
24/09:30am 17.4 14.6 11.4 68 3.3 SSE 17 26 9 14 - - 0.0
24/09:00am 17.0 14.4 12.1 73 2.7 SSE 17 24 9 13 - - 1.2
24/08:30am 16.5 14.6 13.0 80 2.0 SSE 15 20 8 11 - - 1.2
24/08:00am 15.4 14.4 12.2 81 1.7 S 9 15 5 8 - - 1.2
24/07:30am 15.0 14.0 12.3 84 1.5 SSE 9 13 5 7 - - 1.2
24/07:00am 14.8 14.2 11.8 82 1.6 S 6 9 3 5 - - 1.2
24/06:30am 15.4 14.0 12.2 81 1.7 SW 11 17 6 9 - - 1.2
24/06:00am 15.8 13.0 13.3 85 1.4 SW 20 28 11 15 - - 1.2
24/05:30am 16.7 15.4 13.6 82 1.8 WNW 13 22 7 12 - - 0.8
24/05:00am 16.8 14.9 13.1 79 2.1 W 15 24 8 13 - - 0.8
24/04:30am 16.6 15.0 12.8 78 2.1 WNW 13 24 7 13 - - 0.8
24/04:00am 16.4 14.8 12.8 79 2.0 W 13 20 7 11 - - 0.8
24/03:30am 16.2 15.0 12.7 80 1.9 WNW 11 17 6 9 - - 0.8
24/03:00am 16.1 14.1 12.8 81 1.8 WNW 15 26 8 14 - - 0.8
24/02:30am 16.3 14.3 12.7 79 2.0 W 15 26 8 14 - - 0.8
24/02:00am 16.0 14.3 12.4 79 2.0 WNW 13 20 7 11 - - 0.8
24/01:30am 15.9 13.9 12.6 81 1.8 WNW 15 24 8 13 - - 0.8
24/01:00am 15.9 13.5 13.9 88 1.1 W 19 33 10 18 - - 0.8
24/12:30am 16.3 15.5 13.0 81 1.8 W 9 15 5 8 - - 0.0
24/12:00am 16.6 15.1 13.1 80 2.0 W 13 20 7 11 - - 0.0
 
Date/Time
CST
Temp
°C
App
Temp
°C
Dew
Point
Rel
Hum
%
Delta-T
°C
Wind Press
QNH
hPa
Press
MSL
hPa
Rain
since 9 am
mm
Dir
 
Spd
km/h
Gust
km/h
Spd
kts
Gust
kts
23/11:30pm 17.6 15.0 12.1 70 3.0 WNW 17 30 9 16 - - 0.0
23/11:00pm 17.6 15.1 10.9 65 3.6 WNW 15 20 8 11 - - 0.0
23/10:30pm 17.2 15.5 11.2 68 3.2 NW 11 17 6 9 - - 0.0
23/10:00pm 17.1 15.5 11.4 69 3.1 NW 11 17 6 9 - - 0.0
23/09:30pm 17.3 15.5 10.9 66 3.4 NNW 11 17 6 9 - - 0.0
23/09:00pm 17.4 15.1 10.3 63 3.8 NNW 13 17 7 9 - - 0.0
23/08:30pm 17.4 15.6 9.3 59 4.2 NNW 9 17 5 9 - - 0.0
23/08:00pm 17.1 15.2 9.0 59 4.2 NNW 9 13 5 7 - - 0.0
23/07:30pm 16.6 14.5 8.1 57 4.3 N 9 13 5 7 - - 0.0
23/07:00pm 16.8 14.6 7.7 55 4.6 N 9 19 5 10 - - 0.0
23/06:30pm 16.6 14.6 7.0 53 4.8 N 7 9 4 5 - - 0.0
23/06:00pm 17.1 15.2 6.9 51 5.1 N 6 7 3 4 - - 0.0
23/05:30pm 18.2 16.3 6.7 47 5.7 N 6 9 3 5 - - 0.0
23/05:00pm 19.2 17.1 6.7 44 6.3 N 7 9 4 5 - - 0.0
23/04:30pm 18.8 16.9 6.6 45 6.1 N 6 11 3 6 - - 0.0
23/04:00pm 18.8 16.4 6.9 46 6.0 NNW 9 11 5 6 - - 0.0
23/03:30pm 19.3 17.5 7.1 45 6.2 NNW 6 11 3 6 - - 0.0
23/03:00pm 19.2 17.2 7.0 45 6.2 NNW 7 15 4 8 - - 0.0
23/02:30pm 19.1 17.5 8.1 49 5.7 NW 6 11 3 6 - - 0.0
23/02:00pm 18.3 16.7 8.6 53 5.0 WNW 7 11 4 6 - - 0.0
23/01:30pm 18.1 15.8 8.9 55 4.8 WNW 11 15 6 8 - - 0.0
23/01:00pm 18.1 16.2 9.2 56 4.7 WNW 9 17 5 9 - - 0.0
23/12:30pm 18.0 15.9 9.6 58 4.4 WNW 11 17 6 9 - - 0.0
23/12:00pm 17.8 16.0 9.4 58 4.4 WNW 9 17 5 9 - - 0.0
23/11:30am 17.4 15.4 8.5 56 4.6 NNW 9 15 5 8 - - 0.0
23/11:00am 16.9 15.2 8.3 57 4.4 NW 7 15 4 8 - - 0.0
23/10:30am 16.9 14.6 7.5 54 4.7 NNW 9 13 5 7 - - 0.0
23/10:00am 16.6 14.4 7.8 56 4.4 NNW 9 13 5 7 - - 0.0
23/09:30am 15.9 14.0 7.4 57 4.2 N 7 9 4 5 - - 0.0
23/09:00am 14.7 13.2 7.0 60 3.8 N 4 7 2 4 - - 0.0
23/08:30am 12.9 11.4 6.9 67 2.9 NE 4 7 2 4 - - 0.0
23/08:00am 11.8 9.7 6.7 71 2.4 NE 7 9 4 5 - - 0.0
23/07:30am 11.2 9.0 6.3 72 2.3 NE 7 9 4 5 - - 0.0
23/07:00am 9.5 7.5 6.4 81 1.4 ENE 6 7 3 4 - - 0.0
23/06:30am 9.4 8.6 6.3 81 1.4 CALM 0 6 0 3 - - 0.0
23/06:00am 9.9 7.5 6.8 81 1.5 NE 9 11 5 6 - - 0.0
23/05:30am 10.1 8.1 7.0 81 1.5 NE 7 11 4 6 - - 0.0
23/05:00am 10.1 7.0 7.2 82 1.4 NE 13 15 7 8 - - 0.0
23/04:30am 9.8 7.8 7.2 84 1.2 NE 7 11 4 6 - - 0.0
23/04:00am 9.0 7.5 6.6 85 1.1 ENE 4 7 2 4 - - 0.0
23/03:30am 9.1 7.9 6.4 83 1.3 E 2 4 1 2 - - 0.0
23/03:00am 9.6 7.7 6.7 82 1.4 E 6 7 3 4 - - 0.0
23/02:30am 9.8 7.9 6.7 81 1.5 E 6 9 3 5 - - 0.0
23/02:00am 10.3 8.3 7.0 80 1.6 E 7 13 4 7 - - 0.0
23/01:30am 9.9 8.4 6.8 81 1.5 SE 4 6 2 3 - - 0.0
23/01:00am 10.7 9.6 6.8 77 1.8 E 2 6 1 3 - - 0.0
23/12:30am 10.9 9.0 6.8 76 1.9 E 6 7 3 4 - - 0.0
23/12:00am 11.1 9.1 7.2 77 1.9 SE 7 9 4 5 - - 0.0
 
Date/Time
CST
Temp
°C
App
Temp
°C
Dew
Point
Rel
Hum
%
Delta-T
°C
Wind Press
QNH
hPa
Press
MSL
hPa
Rain
since 9 am
mm
Dir
 
Spd
km/h
Gust
km/h
Spd
kts
Gust
kts
22/11:30pm 11.0 9.5 6.9 76 2.0 SE 4 6 2 3 - - 0.0
22/11:00pm 11.6 10.5 6.9 73 2.2 S 2 4 1 2 - - 0.0
22/10:30pm 12.0 10.9 7.1 72 2.4 E 2 7 1 4 - - 0.0
22/10:00pm 12.0 10.5 6.9 71 2.4 ESE 4 7 2 4 - - 0.0
22/09:30pm 12.5 10.7 7.0 69 2.7 ESE 6 9 3 5 - - 0.0
22/09:00pm 13.2 11.2 7.2 67 2.9 E 7 9 4 5 - - 0.0
22/08:30pm 13.4 12.3 7.0 65 3.1 ESE 2 4 1 2 - - 0.0
22/08:00pm 13.8 12.7 7.1 64 3.3 S 2 4 1 2 - - 0.0
22/07:30pm 14.3 13.2 7.1 62 3.5 S 2 4 1 2 - - 0.0
22/07:00pm 14.4 12.9 7.0 61 3.6 ESE 4 7 2 4 - - 0.0
22/06:30pm 14.8 12.4 7.1 60 3.8 SE 9 17 5 9 - - 0.0
22/06:00pm 15.2 12.4 7.0 58 4.0 SSE 11 15 6 8 - - 0.0
22/05:30pm 16.3 12.4 7.3 55 4.5 S 17 20 9 11 - - 0.0
22/05:00pm 17.5 13.0 6.1 47 5.6 S 19 26 10 14 - - 0.0
22/04:30pm 17.8 13.6 5.7 45 5.9 SW 17 24 9 13 - - 0.0
22/04:00pm 18.9 14.4 6.1 43 6.3 SW 19 30 10 16 - - 0.0
22/03:30pm 18.9 14.8 8.8 52 5.3 SW 20 33 11 18 - - 0.0
22/03:00pm 18.9 14.4 8.6 51 5.4 WSW 22 33 12 18 - - 0.0
22/02:30pm 18.8 14.8 9.0 53 5.1 SW 20 33 11 18 - - 0.0
22/02:00pm 18.9 14.9 9.1 53 5.1 WSW 20 28 11 15 - - 0.0
22/01:30pm 19.4 15.5 9.3 52 5.3 WSW 20 30 11 16 - - 0.0
22/01:00pm 19.3 15.5 9.2 52 5.3 WSW 19 28 10 15 - - 0.0
22/12:30pm 19.1 15.1 8.4 50 5.6 WSW 19 30 10 16 - - 0.0
22/12:00pm 19.1 15.7 9.3 53 5.2 WSW 17 24 9 13 - - 0.0
22/11:30am 18.6 16.2 9.9 57 4.6 WSW 13 20 7 11 - - 0.0
22/11:00am 18.4 16.1 10.3 59 4.3 WSW 13 22 7 12 - - 0.0
22/10:30am 19.3 17.2 9.8 54 5.1 SSE 11 19 6 10 - - 0.0
22/10:00am 18.4 16.8 10.3 59 4.3 SSW 9 19 5 10 - - 0.0
22/09:30am 17.4 15.5 10.5 64 3.7 S 11 17 6 9 - - 0.0
22/09:00am 17.0 16.1 10.8 67 3.3 SSW 6 13 3 7 - - 1.8
22/08:30am 16.3 15.2 10.8 70 2.9 S 7 11 4 6 - - 1.8
22/08:00am 15.9 15.3 11.7 76 2.3 S 6 9 3 5 - - 1.8
22/07:30am 15.0 13.9 12.0 82 1.6 SSE 9 11 5 6 - - 1.8
22/07:00am 15.3 15.2 12.2 82 1.7 S 4 6 2 3 - - 1.8
22/06:30am 15.6 15.2 12.4 81 1.8 S 6 7 3 4 - - 1.8
22/06:00am 15.9 15.1 12.8 82 1.7 SSE 9 11 5 6 - - 1.8
22/05:30am 16.2 16.5 13.5 84 1.5 S 4 6 2 3 - - 1.8
22/05:00am 16.1 16.5 13.6 85 1.4 SSW 4 9 2 5 - - 1.8
22/04:30am 16.2 15.5 13.3 83 1.6 E 9 13 5 7 - - 1.8
22/04:00am 16.6 16.6 13.5 82 1.7 SW 6 7 3 4 - - 1.8
22/03:30am 16.5 16.2 13.2 81 1.8 SE 7 11 4 6 - - 1.8
22/03:00am 16.9 16.0 13.8 82 1.8 E 11 19 6 10 - - 1.8
22/02:30am 16.9 17.4 14.0 83 1.7 SE 4 7 2 4 - - 1.8
22/02:00am 17.4 17.8 14.7 84 1.6 E 6 7 3 4 - - 1.8
22/01:30am 17.8 18.7 15.1 84 1.6 WSW 4 7 2 4 - - 1.8
22/01:00am 18.2 17.2 13.5 74 2.7 SW 11 22 6 12 - - 1.8
22/12:30am 18.2 18.2 13.5 74 2.7 SSW 6 11 3 6 - - 1.8
22/12:00am 18.7 17.8 12.5 67 3.5 NNE 9 19 5 10 - - 0.8
 
Date/Time
CST
Temp
°C
App
Temp
°C
Dew
Point
Rel
Hum
%
Delta-T
°C
Wind Press
QNH
hPa
Press
MSL
hPa
Rain
since 9 am
mm
Dir
 
Spd
km/h
Gust
km/h
Spd
kts
Gust
kts
21/11:30pm 19.3 19.9 13.0 67 3.6 SSW 2 4 1 2 - - 0.4
21/11:00pm 20.1 19.0 11.8 59 4.6 ENE 9 15 5 8 - - 0.0
21/10:30pm 19.9 19.6 12.7 63 4.1 SE 6 7 3 4 - - 0.0
21/10:00pm 20.5 18.8 12.5 60 4.5 WSW 13 26 7 14 - - 0.0
21/09:30pm 21.5 20.7 11.8 54 5.4 N 7 13 4 7 - - 0.0
21/09:00pm 20.9 20.8 12.1 57 4.9 E 4 4 2 2 - - 0.0
21/08:30pm 22.0 21.4 11.7 52 5.8 WNW 6 13 3 7 - - 0.0
21/08:00pm 22.8 19.8 11.8 50 6.2 NW 19 30 10 16 - - 0.0
21/07:30pm 22.8 20.3 11.2 48 6.5 N 15 20 8 11 - - 0.0
21/07:00pm 22.3 20.9 12.3 53 5.7 N 11 15 6 8 - - 0.0
21/06:30pm 22.9 21.8 11.9 50 6.2 NW 9 15 5 8 - - 0.0
21/06:00pm 23.9 21.0 10.9 44 7.3 NNW 17 24 9 13 - - 0.0

Other Formats:

Comma delimited format used in spreadsheet applications
http://www.bom.gov.au/fwo/IDS60801/IDS60801.94808.axf

JavaScript Object Notation format (JSON) in row-major order
http://www.bom.gov.au/fwo/IDS60801/IDS60801.94808.json